Columbus, Michigan
Current Conditions -  °F | °C
As of 11:37 AM on Sunday 25 Jan 2015 (Local Time) from KPHN Reporting Station
Overcast Overcast  
Wind Chill:   Ceiling: 1600
Heat Index: 21°   Visibility: 7mi
Dew Point: 18°   Wind: 14mph
Humidity: 86%   Direction: 50°NE
Pressure: 29.94"   Gusts: 17mph
Location:  42.85°N, 82.67°W
Report Text: KPHN 251637Z AUTO 05012G15KT 7SM OVC016 M06/M08 A2994 RMK AO2
Loading
Personal Weather Stations






























Interactive Weather Map New forecast layout! Learn more

10-Day Weather Forecast

Advertisements
Track Severe Weather on mobile